Kelsay, Texas
Current Conditions -  °F | °C
As of 3:55 AM on Sunday 23 Nov 2014 (Local Time) from KBKS Reporting Station
Overcast Overcast  
Wind Chill: 58°   Ceiling: 200
Heat Index: 58°   Visibility: 2.5mi
Dew Point: 57°   Wind: 3mph
Humidity: 95%   Direction: 230°SW
Pressure: 29.75"   Gusts: NA
Location:  26.9826°N, 98.212°W
Report Text: KBKS 230955Z AUTO 23003KT 2 1/2SM OVC002 15/14 A2975 RMK AO1 T01450137
Loading
Personal Weather Stations






























Interactive Weather Map New forecast layout! Learn more

10-Day Weather Forecast

Advertisements
Track Severe Weather on mobile